Tiempo atmosférico en la estación meteorológica de Ronda Instituto, Málaga (760 m.)



Fecha
DESCASC
Temp. máxima en grados centígrados (hora)
DESCASC
Temp. mínima en grados centígrados (hora)
DESCASC
Temp. media en grados centígrados
DESCASC
Racha de viento máxima en m/sg (hora)
DESCASC
Velocidad máxima media en intervalos de 10 minutos(hora)
DESCASC
Precipitaciones diarias en mm
DESCASC
Precipitaciones de 00:00 a 06:00 en mm
DESCASC
Precipitaciones de 06:00 a 12:00 en mm
DESCASC
Precipitaciones de 12:00 a 18:00 en mm
DESCASC
Precipitaciones de 18:00 a 24:00 en mm
DESCASC
04-03-2021 12.7 (16:10) 7.9 (07:50) 10.3 11.67 (08:10) 5.83 (05:40) -- 0 0 -- 0
03-03-2021 15.5 (14:00) 8.6 (01:10) 12.1 10.83 (23:30) 4.72 (23:30) 0 0 0 0 0
02-03-2021 15.4 (17:00) 6.7 (08:00) 11 4.44 (14:00) 1.94 (13:20) 0.2 0.2 0 0 0
01-03-2021 13.7 (14:10) 8.3 (05:50) 11 7.78 (07:20) 3.33 (14:50) 1.4 0 0 0 1.4
28-02-2021 12.9 (16:10) 7.9 (00:00) 10.4 10.83 (10:30) 4.72 (12:30) 0.6 0 0 0 0.6
27-02-2021 14 (15:00) 7.9 (00:00) 11 7.5 (11:20) 3.61 (04:00) 0 0 0 0 0
26-02-2021 12.7 (11:30) 9.2 (00:00) 10.9 10.56 (12:20) 5 (12:50) 0 0 0 0 0
25-02-2021 13.6 (16:50) 9 (00:00) 11.3 10.83 (06:30) 5.56 (04:50) 0 0 0 0 0
24-02-2021 13.4 (13:20) 8.5 (00:00) 10.9 13.61 (08:20) 5.83 (15:30) 0 0 0 0 0
23-02-2021 14 (13:30) 2.6 (00:00) 8.3 8.33 (12:40) 3.89 (12:50) 0 0 0 0 0
22-02-2021 11.8 (15:30) 3.7 (00:00) 7.8 9.72 (02:40) 5 (02:10) 0.2 0 0.2 0 0
21-02-2021 10.6 (05:00) 5.7 (00:00) 8.2 16.39 (11:50) 7.78 (12:10) 7.2 0 2 5.2 0
20-02-2021 17.6 (13:30) 9.2 (00:00) 13.4 9.17 (16:00) 4.72 (16:00) 0 0 0 0 0
19-02-2021 19 (14:40) 8.3 (00:00) 13.7 8.89 (15:30) 5 (13:20) 0 0 0 0 0
18-02-2021 18.7 (15:40) 7.1 (00:00) 12.9 5.56 (13:50) 2.78 (13:40) 0 0 0 0 0
17-02-2021 22.2 (15:30) 9 (00:00) 15.6 5.28 (17:30) 2.78 (17:30) 0 0 0 0 0
16-02-2021 20.2 (16:50) 6.7 (00:00) 13.5 8.33 (00:20) 3.33 (00:10) 0 0 0 0 0
15-02-2021 15.1 (14:30) 8.7 (00:00) 11.9 14.17 (04:10) 7.22 (09:00) 0 0 0 0 0
14-02-2021 17.4 (14:30) 7.6 (00:00) 12.5 11.39 (23:50) 6.11 (23:59) 0 0 0 0 0
13-02-2021 18.3 (14:50) 4.6 (00:00) 11.4 5 (16:20) 2.78 (16:40) 0 0 0 0 0
12-02-2021 15.3 (15:40) 8.2 (00:00) 11.8 10.28 (13:20) 4.72 (13:20) 0.2 0 0.2 0 0
11-02-2021 15.6 (13:40) 10 (00:00) 12.8 4.72 (16:10) 2.5 (15:40) 0 0 0 0 0
10-02-2021 12.3 (14:30) 8.7 (00:00) 10.5 15.56 (08:50) 5.83 (09:20) 9 6 1.8 1 0.2
09-02-2021 11.9 (15:40) 7.8 (00:00) 9.8 14.44 (13:00) 5.83 (13:20) 7.6 0 0 2 5.6
08-02-2021 12.2 (14:10) 7.1 (00:00) 9.6 13.89 (06:10) 6.39 (08:10) 9.8 2.2 7.2 0 0.4
07-02-2021 8.4 (15:00) 5.7 (00:00) 7 9.72 (15:10) 4.17 (13:50) 0.8 0.6 0.2 0 0
06-02-2021 10.7 (15:10) 6.2 (00:00) 8.4 11.11 (00:30) 5.28 (02:10) 5.8 2 2 0.2 1.6
05-02-2021 14.8 (13:40) 7.8 (00:00) 11.3 10.83 (16:30) 5.28 (16:30) 1.2 0 0 0 1.2
04-02-2021 18.6 (14:30) 7.2 (00:00) 12.9 10.28 (12:50) 5 (12:50) 0 0 0 0 0

Gráficas

Temp. máximas Temp. mínimas Temp. medias Precipitaciones Rachas de viento máximas Velocidades máximas media en intervalos de 10 minutos

Datos horarios

Fecha y hora oficial Temperatura (ºC) Velocidad del viento (km/h) Dirección del viento Racha (km/h) Dirección de racha Precipitación (mm) Presión (hPa) Tendencia (hPa) Humedad (%)
2021-03-05 23:00:00 -- -- -- -- -- -- -- -- --
2021-03-05 22:00:00 8.9 3 Norte 8 Este 0.2 -- -- 86
2021-03-05 21:00:00 9 3 Este 10 Sur 0 -- -- 83
2021-03-05 20:00:00 9.1 5 Sur 13 Sur 0 -- -- 83
2021-03-05 19:00:00 10.4 3 Sur 10 Sudoeste 0 -- -- 82
2021-03-05 18:00:00 10.8 4 Sur 21 Este 0.4 -- -- 82
2021-03-05 17:00:00 8.3 5 Este 18 Sudeste 4 -- -- 92
2021-03-05 16:00:00 8.8 0 Calma 5 Noroeste 4.8 -- -- 95
2021-03-05 15:00:00 8.7 3 Noroeste 12 Noroeste 4.8 -- -- 95
2021-03-05 14:00:00 8.7 3 Oeste 13 Oeste 1.8 -- -- 94
2021-03-05 13:00:00 8.9 4 Oeste 12 Noroeste 0.4 -- -- 90
2021-03-05 12:00:00 9.8 5 Sudeste 21 Este 0 -- -- 81
2021-03-05 11:00:00 9.6 0 Calma 17 Este 0.2 -- -- 83
2021-03-05 10:00:00 9.2 4 Sur 21 Sudeste 0.4 -- -- 85
2021-03-05 09:00:00 9.3 9 Sudeste 31 Sudeste 0 -- -- 80
2021-03-05 08:00:00 9 10 Sudeste 26 Sur 0 -- -- 81
2021-03-05 07:00:00 8.8 8 Sudeste 24 Este 0 -- -- 81
2021-03-05 06:00:00 8.4 8 Sur 27 Sudeste 0 -- -- 85
2021-03-05 05:00:00 8.6 12 Sudeste 28 Sudeste 0 -- -- 86
2021-03-05 04:00:00 8.8 7 Sudeste 25 Sudeste 0 -- -- 84
2021-03-05 03:00:00 8.9 14 Sur 31 Sur 0 -- -- 85
2021-03-05 02:00:00 9 10 Sur 30 Sur 0 -- -- 83
2021-03-05 01:00:00 9.4 10 Sur 25 Sur 0 -- -- 78
2021-03-05 00:00:00 9.5 8 Sur 22 Sudeste 0 -- -- 77
2021-03-04 23:00:00 9.4 10 Sur 23 Sur 0 -- -- 77
2021-03-04 22:00:00 9.5 6 Sur 21 Sudeste 0 -- -- 76
2021-03-04 21:00:00 9.2 9 Sur 21 Sur 0 -- -- 77
2021-03-04 20:00:00 9.5 7 Sur 17 Sur 0 -- -- 78
2021-03-04 19:00:00 10.3 9 Sur 26 Sur 0 -- -- 75
2021-03-04 18:00:00 11.1 9 Sur 24 Sur 0 -- -- 69
2021-03-04 17:00:00 11.7 11 Sur 25 Sudeste 0 -- -- 65
2021-03-04 16:00:00 12.2 11 Sur 28 Sudeste 0 -- -- 64
2021-03-04 15:00:00 12 13 Sudeste 32 Este 0 -- -- 67
2021-03-04 14:00:00 12.1 15 Sur -- -- -- -- -- 68
2021-03-04 13:00:00 11.6 15 Sur 30 Sur 0 -- -- 69
2021-03-04 12:00:00 10.4 14 Sur 31 Sur 0 -- -- 76
2021-03-04 11:00:00 9.8 15 Sur 34 Sur 0 -- -- 78
2021-03-04 10:00:00 9.3 15 Sur 34 Sur 0 -- -- 77
2021-03-04 09:00:00 9 14 Sur 42 Sur 0 -- -- 76
2021-03-04 08:00:00 8 17 Sur 32 Sur 0 -- -- 74
2021-03-04 07:00:00 8.4 17 Sur 42 Sur 0 -- -- 72
2021-03-04 06:00:00 8.7 18 Sur 36 Sur 0 -- -- 72
2021-03-04 05:00:00 8.9 12 Sur 34 Sur 0 -- -- 75
2021-03-04 04:00:00 8.9 12 Sur 33 Sur 0 -- -- 76
2021-03-04 03:00:00 9.1 13 Sur 33 Sudeste 0 -- -- 76
2021-03-04 02:00:00 9.2 12 Sur 28 Sur 0 -- -- 78
2021-03-04 01:00:00 9.3 8 Sur 24 Sur 0 -- -- 82
2021-03-04 00:00:00 9.4 12 Sur 39 Sur 0 -- -- 82
2021-03-03 23:00:00 9.6 13 Sudeste 31 Sudeste 0 -- -- 79
2021-03-03 22:00:00 9.6 6 Sudeste 17 Este 0 -- -- 81
2021-03-03 21:00:00 10.1 4 Sudeste 15 Sur 0 -- -- 81
2021-03-03 20:00:00 10.8 5 Sudeste 13 Sudeste 0 -- -- 78
2021-03-03 19:00:00 11.5 5 Sudeste 21 Sur 0 -- -- 74
2021-03-03 18:00:00 12.5 7 Sur 20 Sur 0 -- -- 70
2021-03-03 17:00:00 13.9 9 Sur 22 Sur 0 -- -- 64
2021-03-03 16:00:00 14.9 9 Sur 23 Sudeste 0 -- -- 61
2021-03-03 15:00:00 15 10 Sur 23 Sudeste 0 -- -- 64
2021-03-03 14:00:00 15.5 7 Sur 19 Sudoeste 0 -- -- 61
2021-03-03 13:00:00 15 5 Sur 10 Sudoeste 0 -- -- 63
2021-03-03 12:00:00 14.1 4 Noroeste 12 Sur 0 -- -- 69
2021-03-03 11:00:00 14 7 Sur 15 Sur 0 -- -- 67
2021-03-03 10:00:00 11.4 4 Nordeste 9 Este 0 -- -- 74
2021-03-03 09:00:00 10.2 2 Sur 12 Sur 0 -- -- 82
2021-03-03 08:00:00 9.8 6 Sur 12 Sur 0 -- -- 82
2021-03-03 07:00:00 9.7 3 Sur 9 Sur 0 -- -- 82
2021-03-03 06:00:00 9.8 2 Noroeste 13 Sur 0 -- -- 81
2021-03-03 05:00:00 10 5 Sudoeste 17 Sur 0 -- -- 79
2021-03-03 04:00:00 10.1 3 Sur 17 Sudoeste 0 -- -- 75
2021-03-03 03:00:00 9.8 8 Sur 16 Sur 0 -- -- 78
2021-03-03 02:00:00 9.1 0 Calma 7 Nordeste 0 -- -- 86
2021-03-03 01:00:00 8.7 0 Calma 5 Noroeste 0 -- -- 93
2021-03-03 00:00:00 9.3 0 Calma 5 Sudoeste 0 -- -- 93
2021-03-02 23:00:00 9.7 0 Calma 4 Este 0 -- -- 92
2021-03-02 22:00:00 10.3 0 Calma 0 Calma 0 -- -- 89
2021-03-02 21:00:00 11.3 0 Calma 4 Este 0 -- -- 84
2021-03-02 20:00:00 12.1 0 Calma 6 Oeste 0 -- -- 80
2021-03-02 19:00:00 13.5 0 Calma 7 Noroeste 0 -- -- 74
2021-03-02 18:00:00 14.7 3 Noroeste 10 Nordeste 0 -- -- 64
2021-03-02 17:00:00 15.4 4 Noroeste 12 Norte 0 -- -- 61
2021-03-02 16:00:00 14.8 4 Norte 13 Noroeste 0 -- -- 67
2021-03-02 15:00:00 14 4 Noroeste 13 Noroeste 0 -- -- 71
2021-03-02 14:00:00 13.8 6 Noroeste 16 Noroeste 0 -- -- 72
2021-03-02 13:00:00 13.2 4 Noroeste 10 Noroeste 0 -- -- 72
2021-03-02 12:00:00 13.2 3 Norte 8 Nordeste 0 -- -- 71
2021-03-02 11:00:00 11.5 0 Calma 4 Oeste 0 -- -- 76
2021-03-02 10:00:00 9.3 0 Calma 3 Sudoeste 0 -- -- 85
2021-03-02 09:00:00 7.3 2 Este 4 Sudeste 0 -- -- 89
2021-03-02 08:00:00 6.7 3 Sudeste 4 Sudeste 0 -- -- 90
2021-03-02 07:00:00 7.3 0 Calma 4 Norte 0 -- -- 91
2021-03-02 06:00:00 7.7 0 Calma 6 Sudoeste 0 -- -- 89
2021-03-02 05:00:00 8 2 Noroeste 5 Norte 0 -- -- 88
2021-03-02 04:00:00 8.2 0 Calma 6 Noroeste 0 -- -- 85
2021-03-02 03:00:00 8 2 Este 4 Este 0 -- -- 89
2021-03-02 02:00:00 8.2 0 Calma 5 Este 0.2 -- -- 89
2021-03-02 01:00:00 8.9 2 Sudeste 4 Este 0 -- -- 88
2021-03-02 00:00:00 8.8 0 Calma 9 Nordeste 0 -- -- 87
2021-03-01 23:00:00 9.2 4 Nordeste 9 Nordeste 1.4 -- -- 86
2021-03-01 22:00:00 9.6 3 Sudeste 6 Sudeste 0 -- -- 75
2021-03-01 21:00:00 10.2 2 Este 4 Sudeste 0 -- -- 72
2021-03-01 20:00:00 11.2 0 Calma 14 Norte 0 -- -- 68
2021-03-01 19:00:00 11.9 5 Nordeste 13 Nordeste 0 -- -- 63
2021-03-01 18:00:00 12.3 2 Oeste 8 Sur 0 -- -- 65
2021-03-01 17:00:00 12.9 0 Calma 12 Sudeste 0 -- -- 63
2021-03-01 16:00:00 12.7 4 Sur 21 Sur 0 -- -- 64
2021-03-01 15:00:00 12.3 11 Sur 26 Sudeste 0 -- -- 66
2021-03-01 14:00:00 13 8 Sur 23 Sudeste 0 -- -- 65
2021-03-01 13:00:00 12.7 9 Sur 27 Este 0 -- -- 70
2021-03-01 12:00:00 11.4 8 Sur 21 Sur 0 -- -- 75
2021-03-01 11:00:00 10.9 10 Sur 25 Sur 0 -- -- 75
2021-03-01 10:00:00 10.8 10 Sur 23 Sudeste 0 -- -- 76
2021-03-01 09:00:00 10 11 Sur 23 Sur 0 -- -- 76
2021-03-01 08:00:00 9.5 4 Sudeste 28 Sudeste 0 -- -- 75
2021-03-01 07:00:00 8.7 0 Calma 9 Sur 0 -- -- 78
2021-03-01 06:00:00 8.4 2 Sur 6 Sur 0 -- -- 78
2021-03-01 05:00:00 8.7 0 Calma 9 Nordeste 0 -- -- 78
2021-03-01 04:00:00 8.7 3 Sudeste 11 Este 0 -- -- 78
2021-03-01 03:00:00 8.8 6 Sur 23 Sur 0 -- -- 80
2021-03-01 02:00:00 8.9 6 Sur 25 Sudeste 0 -- -- 79
2021-03-01 01:00:00 8.9 8 Sur 22 Sur 0 -- -- 82
2021-03-01 00:00:00 9.1 7 Sur 19 Sudeste 0.6 -- -- 88
2021-02-28 23:00:00 9.8 9 Sudeste 26 Este 0 -- -- 80
2021-02-28 22:00:00 10 9 Sur 30 Sur 0 -- -- 77
2021-02-28 21:00:00 9.6 9 Sur 17 Sur 0 -- -- 74
2021-02-28 20:00:00 9.8 5 Sudeste 22 Sur 0 -- -- 73
2021-02-28 19:00:00 10.2 12 Sudeste 24 Sudeste 0 -- -- 74
2021-02-28 18:00:00 10.6 7 Sur 23 Sudeste 0 -- -- 74
2021-02-28 17:00:00 10.9 14 Sur 32 Sudeste 0 -- -- 74
2021-02-28 16:00:00 12.4 11 Sur 31 Sudeste 0 -- -- 67
2021-02-28 15:00:00 10.3 15 Sur 33 Sudeste 0 -- -- 75
2021-02-28 14:00:00 10.2 12 Sur 31 Sudeste 0 -- -- 75
2021-02-28 13:00:00 9.5 16 Sur 35 Sur 0 -- -- 77
2021-02-28 12:00:00 9.7 16 Sur 35 Sudeste 0 -- -- 77
2021-02-28 11:00:00 10.8 11 Sur 39 Sudeste 0 -- -- 73
2021-02-28 10:00:00 9.6 12 Sur 23 Sudeste 0 -- -- 78
2021-02-28 09:00:00 8.9 3 Sudeste 15 Sudeste 0 -- -- 80
2021-02-28 08:00:00 8.5 4 Sudeste 15 Sudeste 0 -- -- 81
2021-02-28 07:00:00 8.3 4 Sudeste 13 Este 0 -- -- 80
2021-02-28 06:00:00 8.4 2 Este 17 Sudeste 0 -- -- 79
2021-02-28 05:00:00 8.6 9 Sur 31 Sur 0 -- -- 77
2021-02-28 04:00:00 8.7 8 Sur 25 Sudeste 0 -- -- 75
2021-02-28 03:00:00 8.7 10 Sudeste 31 Sur 0 -- -- 74
2021-02-28 02:00:00 8.7 12 Sur 27 Sudeste 0 -- -- 73
2021-02-28 01:00:00 8.2 3 Norte 6 Norte 0 -- -- 76
2021-02-28 00:00:00 8 2 Nordeste 6 Este 0 -- -- 76
2021-02-27 23:00:00 8.4 3 Sur 17 Sudeste 0 -- -- 75
2021-02-27 22:00:00 8.4 3 Noroeste 15 Norte 0 -- -- 77
2021-02-27 21:00:00 8.8 3 Norte 14 Nordeste 0 -- -- 75
2021-02-27 20:00:00 9.4 3 Este 10 Este 0 -- -- 75
2021-02-27 19:00:00 10.7 0 Calma 8 Noroeste 0 -- -- 70
2021-02-27 18:00:00 11.8 0 Calma 17 Sur 0 -- -- 63
2021-02-27 17:00:00 12.3 6 Sudeste 20 Sur 0 -- -- 64
2021-02-27 16:00:00 12.7 8 Sur 22 Sur 0 -- -- 64
2021-02-27 15:00:00 14 10 Sur 24 Sur 0 -- -- 62
2021-02-27 14:00:00 13 8 Sur 22 Sur 0 -- -- 65
2021-02-27 13:00:00 12.1 12 Sur 27 Sudeste 0 -- -- 65
2021-02-27 12:00:00 12.1 10 Sur 27 Sur 0 -- -- 65
2021-02-27 11:00:00 10.3 7 Sur 15 Sur 0 -- -- 69
2021-02-27 10:00:00 9.4 5 Sur 21 Sur 0 -- -- 74
2021-02-27 09:00:00 8.7 8 Sur 19 Sur 0 -- -- 77
2021-02-27 08:00:00 8.4 6 Sudeste 23 Sur 0 -- -- 79
2021-02-27 07:00:00 8.4 7 Sur 24 Sudoeste 0 -- -- 77
2021-02-27 06:00:00 8.8 10 Sur 26 Sur 0 -- -- 76
2021-02-27 05:00:00 8.8 11 Sur 25 Sudeste 0 -- -- 77
2021-02-27 04:00:00 8.9 13 Sur 27 Sur 0 -- -- 76
2021-02-27 03:00:00 8.9 3 Sudoeste 18 Sur 0 -- -- 74
2021-02-27 02:00:00 9.1 6 Sudeste 23 Sur 0 -- -- 73
2021-02-27 01:00:00 8.8 2 Sudeste 10 Este 0 -- -- 73
2021-02-27 00:00:00 9.2 3 Norte 15 Este 0 -- -- 74
2021-02-26 23:00:00 9.4 5 Este 15 Sudeste 0 -- -- 72
2021-02-26 22:00:00 9.4 2 Este 9 Sur 0 -- -- 70
2021-02-26 21:00:00 10 2 Noroeste 14 Noroeste 0 -- -- 70
2021-02-26 20:00:00 10.3 6 Noroeste 10 Noroeste 0 -- -- 69
2021-02-26 19:00:00 10.8 4 Sur 15 Sur 0 -- -- 66
2021-02-26 18:00:00 11.8 4 Sur 20 Sudeste 0 -- -- 67
2021-02-26 17:00:00 12.5 6 Sur 24 Sur 0 -- -- 64
2021-02-26 16:00:00 12.5 12 Sur 28 Sur 0 -- -- 66
2021-02-26 15:00:00 12.5 10 Sur 31 Sur 0 -- -- 69
2021-02-26 14:00:00 12.7 13 Sur 31 Sudeste 0 -- -- 67
2021-02-26 13:00:00 11.9 18 Sudeste 38 Sudeste 0 -- -- 70
2021-02-26 12:00:00 12.3 13 Sudeste 33 Sur 0 -- -- 67
2021-02-26 11:00:00 11.6 10 Sudeste 29 Sudeste 0 -- -- 71
2021-02-26 10:00:00 10.5 14 Sudeste 32 Sur 0 -- -- 76
2021-02-26 09:00:00 10.4 10 Sudeste 31 Sudeste 0 -- -- 77
2021-02-26 08:00:00 10.4 16 Sudeste 34 Sudeste 0 -- -- 75
2021-02-26 07:00:00 10.3 13 Sur 28 Sudeste 0 -- -- 74
2021-02-26 06:00:00 10 10 Sur 23 Sur 0 -- -- 74
2021-02-26 05:00:00 10.3 11 Sur 22 Sur 0 -- -- 69
2021-02-26 04:00:00 10.5 10 Sur 28 Sur 0 -- -- 69
2021-02-26 03:00:00 10.3 9 Sur 33 Este 0 -- -- 71
2021-02-26 02:00:00 10.1 8 Sur 33 Sur 0 -- -- 73
2021-02-26 01:00:00 10.1 12 Sur 31 Sudeste 0 -- -- 72
2021-02-26 00:00:00 10.4 10 Sur 34 Sur 0 -- -- 70
2021-02-25 23:00:00 10.5 12 Sur 28 Sudeste 0 -- -- 69
2021-02-25 22:00:00 9.8 3 Sudoeste 11 Sudeste 0 -- -- 71
2021-02-25 21:00:00 10.1 2 Sudoeste 16 Sur 0 -- -- 69
2021-02-25 20:00:00 10.4 3 Sudoeste 12 Sudeste 0 -- -- 69
2021-02-25 19:00:00 11.1 4 Sur 19 Sur 0 -- -- 71
2021-02-25 18:00:00 12.3 7 Sur 15 Sur 0 -- -- 69
2021-02-25 17:00:00 13.3 8 Sur 20 Sur 0 -- -- 69
2021-02-25 16:00:00 13.1 8 Sur 21 Sur 0 -- -- 72
2021-02-25 15:00:00 12.5 10 Sudeste 27 Este 0 -- -- 75
2021-02-25 14:00:00 12.7 12 Sudeste 27 Sur 0 -- -- 73
2021-02-25 13:00:00 12.8 12 Sur 27 Sudeste 0 -- -- 73
2021-02-25 12:00:00 12 10 Sur 26 Sur 0 -- -- 76
2021-02-25 11:00:00 11.2 11 Sur 26 Sur 0 -- -- 78
2021-02-25 10:00:00 10.3 13 Sur 36 Sur 0 -- -- 81
2021-02-25 09:00:00 9.9 16 Sur 37 Sur 0 -- -- 81
2021-02-25 08:00:00 9.4 17 Sur 35 Sur 0 -- -- 82
2021-02-25 07:00:00 9.4 17 Sur 39 Sur 0 -- -- 83
2021-02-25 06:00:00 9.3 14 Sur 32 Sur 0 -- -- 83
2021-02-25 05:00:00 9.4 17 Sur 36 Sur 0 -- -- 83
2021-02-25 04:00:00 9 12 Sur 33 Sur 0 -- -- 82
2021-02-25 03:00:00 9.3 14 Sur 37 Sur 0 -- -- 80
2021-02-25 02:00:00 9.2 14 Sur 32 Sur 0 -- -- 77
2021-02-25 01:00:00 9 11 Sur 26 Sudeste 0 -- -- 76
2021-02-25 00:00:00 9.2 9 Sur 30 Sur 0 -- -- 71
2021-02-24 23:00:00 9.6 15 Sur 37 Sudeste 0 -- -- 71
2021-02-24 22:00:00 9.8 15 Sudeste 33 Sudeste 0 -- -- 71
2021-02-24 21:00:00 10.2 18 Sur 33 Sur 0 -- -- 65
2021-02-24 20:00:00 10.8 17 Sur 37 Sur 0 -- -- 65
2021-02-24 19:00:00 10.8 14 Sur 32 Sudeste 0 -- -- 66
2021-02-24 18:00:00 12.1 14 Sur 35 Sur 0 -- -- 64
2021-02-24 17:00:00 12.6 17 Sur 40 Sur 0 -- -- 66
2021-02-24 16:00:00 12.4 18 Sur 41 Sur 0 -- -- 69
2021-02-24 15:00:00 11.1 19 Sur 40 Sudeste 0 -- -- 76
2021-02-24 14:00:00 11.7 16 Sur 40 Sur 0 -- -- 73
2021-02-24 13:00:00 13 19 Sur 44 Sur 0 -- -- 68
2021-02-24 12:00:00 12.6 15 Sur 42 Sur 0 -- -- 69
2021-02-24 11:00:00 12 16 Sur 43 Sur 0 -- -- 69
2021-02-24 10:00:00 11 18 Sur 44 Sur 0 -- -- 72
2021-02-24 09:00:00 10 14 Sur 49 Sur 0 -- -- 72
2021-02-24 08:00:00 9.5 17 Sur 41 Sudeste 0 -- -- 76
2021-02-24 07:00:00 9.7 14 Sur 40 Este 0 -- -- 76
2021-02-24 06:00:00 10 13 Sur 35 Sur 0 -- -- 75
2021-02-24 05:00:00 10 10 Sur 32 Sur 0 -- -- 75
2021-02-24 04:00:00 10 8 Sudeste 28 Sur 0 -- -- 74
2021-02-24 03:00:00 9.4 10 Sudeste 27 Este 0 -- -- 74
2021-02-24 02:00:00 9.2 6 Sur 23 Sur 0 -- -- 74
2021-02-24 01:00:00 8.8 8 Sudeste 28 Sudeste 0 -- -- 73
2021-02-24 00:00:00 8.5 8 Sudeste 22 Sur 0 -- -- 71
2021-02-23 23:00:00 8.1 8 Sudeste 22 Este 0 -- -- 66
2021-02-23 22:00:00 8 6 Sudeste 21 Este 0 -- -- 68
2021-02-23 21:00:00 8.2 3 Norte 12 Sudeste 0 -- -- 72
2021-02-23 20:00:00 8.6 3 Sudeste 18 Sudeste 0 -- -- 68
2021-02-23 19:00:00 9.9 7 Sudeste 22 Sur 0 -- -- 61
2021-02-23 18:00:00 11.9 10 Sudeste 25 Sur 0 -- -- 55
2021-02-23 17:00:00 13.1 10 Sur 25 Este 0 -- -- 50
2021-02-23 16:00:00 13.8 12 Sur 26 Sur 0 -- -- 48
2021-02-23 15:00:00 13.9 11 Sur 27 Sudeste 0 -- -- 48
2021-02-23 14:00:00 13.7 12 Sur 26 Sur 0 -- -- 46
2021-02-23 13:00:00 13.5 12 Sur 30 Sur 0 -- -- 49
2021-02-23 12:00:00 12.7 9 Sur 23 Sur 0 -- -- 48
2021-02-23 11:00:00 10.1 4 Norte 8 Norte 0 -- -- 65
2021-02-23 10:00:00 7.6 0 Calma 5 Este 0 -- -- 81
2021-02-23 09:00:00 3.7 3 Este 7 Este 0 -- -- 92
2021-02-23 08:00:00 3.4 0 Calma 5 Este 0 -- -- 95
2021-02-23 07:00:00 3.4 4 Este 6 Este 0 -- -- 93
2021-02-23 06:00:00 4.2 3 Nordeste 7 Norte 0 -- -- 93
2021-02-23 05:00:00 4.3 0 Calma 5 Nordeste 0 -- -- 92
2021-02-23 04:00:00 4.8 0 Calma 4 Nordeste 0 -- -- 92
2021-02-23 03:00:00 4.7 0 Calma 4 Este 0 -- -- 89
2021-02-23 02:00:00 4.6 4 Este 5 Este 0 -- -- 87
2021-02-23 01:00:00 5 3 Este 6 Este 0 -- -- 87
2021-02-23 00:00:00 5.4 0 Calma 6 Este 0 -- -- 87
2021-02-22 23:00:00 5.9 2 Este 7 Este 0 -- -- 82
2021-02-22 22:00:00 6.5 0 Calma 6 Este 0 -- -- 80
2021-02-22 21:00:00 7.1 2 Este 5 Este 0 -- -- 77
2021-02-22 20:00:00 7.8 2 Noroeste 8 Noroeste 0 -- -- 73
2021-02-22 19:00:00 9.2 4 Oeste 21 Noroeste 0 -- -- 65
2021-02-22 18:00:00 10.8 12 Noroeste 27 Noroeste 0 -- -- 60
2021-02-22 17:00:00 11.4 15 Noroeste 30 Noroeste 0 -- -- 57
2021-02-22 16:00:00 11.5 13 Noroeste 30 Noroeste 0 -- -- 55
2021-02-22 15:00:00 11.4 14 Oeste 31 Oeste 0 -- -- 55
2021-02-22 14:00:00 11.5 13 Noroeste 28 Noroeste 0 -- -- 52
2021-02-22 13:00:00 10.6 13 Noroeste 27 Noroeste 0 -- -- 63
2021-02-22 12:00:00 9.5 15 Noroeste 28 Noroeste 0.2 -- -- 63
2021-02-22 11:00:00 8.6 3 Noroeste 11 Noroeste 0 -- -- 69
2021-02-22 10:00:00 6.7 4 Oeste 8 Oeste 0 -- -- 74
2021-02-22 09:00:00 4.2 0 Calma 8 Noroeste 0 -- -- 88
2021-02-22 08:00:00 3.8 0 Calma 9 Sur 0 -- -- 88
2021-02-22 07:00:00 3.7 2 Oeste 13 Noroeste 0 -- -- 92
2021-02-22 06:00:00 4 4 Oeste 14 Noroeste 0 -- -- 92
2021-02-22 05:00:00 4.4 6 Oeste 19 Noroeste 0 -- -- 92
2021-02-22 04:00:00 4.6 9 Oeste 26 Oeste 0 -- -- 92
2021-02-22 03:00:00 5.1 14 Oeste 35 Oeste 0 -- -- 92
2021-02-22 02:00:00 5.6 13 Oeste 33 Oeste 0 -- -- 92
2021-02-22 01:00:00 5.8 15 Oeste 30 Noroeste 0 -- -- 91
2021-02-22 00:00:00 5.7 14 Oeste 31 Oeste 0 -- -- 90
2021-02-21 23:00:00 5.8 13 Oeste 29 Oeste 0 -- -- 84
2021-02-21 22:00:00 6.3 9 Oeste 23 Oeste 0 -- -- 82
2021-02-21 21:00:00 6.4 5 Noroeste 25 Noroeste 0 -- -- 80
2021-02-21 20:00:00 6 13 Oeste 32 Sudoeste 0 -- -- 81
2021-02-21 19:00:00 6.2 14 Oeste 30 Oeste 0 -- -- 87
2021-02-21 18:00:00 6.2 8 Oeste 42 Oeste 0.6 -- -- 92
2021-02-21 17:00:00 6.7 9 Oeste 23 Noroeste 1.4 -- -- 94
2021-02-21 16:00:00 7.9 6 Noroeste 24 Noroeste 0.2 -- -- 88
2021-02-21 15:00:00 8.3 4 Nordeste 20 Noroeste 0 -- -- 87
2021-02-21 14:00:00 7.7 5 Oeste 20 Sur 1 -- -- 92
2021-02-21 13:00:00 7.3 14 Sur 56 Sur 2 -- -- 90
2021-02-21 12:00:00 8.6 28 Sur 59 Sur 1.2 -- -- 88
2021-02-21 11:00:00 9.4 15 Sur 30 Sudoeste 0.8 -- -- 88
2021-02-21 10:00:00 10.2 19 Sur 36 Sur 0 -- -- 79
2021-02-21 09:00:00 10.6 15 Sur 31 Sur 0 -- -- 72
2021-02-21 08:00:00 10.3 10 Sur 18 Sudoeste 0 -- -- 71
2021-02-21 07:00:00 10.1 4 Sudeste 17 Este 0 -- -- 70
2021-02-21 06:00:00 10.1 3 Oeste 10 Sur 0 -- -- 72
2021-02-21 05:00:00 10.6 4 Sudeste 10 Este 0 -- -- 64
2021-02-21 04:00:00 10.1 2 Nordeste 9 Noroeste 0 -- -- 66
2021-02-21 03:00:00 10 4 Norte 13 Oeste 0 -- -- 64
2021-02-21 02:00:00 10.1 5 Oeste 23 Sur 0 -- -- 63
2021-02-21 01:00:00 10.2 6 Sur 19 Sudoeste 0 -- -- 68
2021-02-21 00:00:00 10.5 5 Norte 12 Noroeste 0 -- -- 64
2021-02-20 23:00:00 10.3 7 Noroeste 19 Noroeste 0 -- -- 68
2021-02-20 22:00:00 10.9 6 Oeste 14 Oeste 0 -- -- 69
2021-02-20 21:00:00 11.4 6 Sur 16 Sudeste 0 -- -- 61
2021-02-20 20:00:00 11.9 5 Sur 11 Sur 0 -- -- 58
2021-02-20 19:00:00 13.4 3 Oeste 8 Oeste 0 -- -- 62
2021-02-20 18:00:00 14.6 0 Calma 11 Sudoeste 0 -- -- 59
2021-02-20 17:00:00 15.9 5 Sur 26 Sur 0 -- -- 58
2021-02-20 16:00:00 17.1 17 Sur 33 Sur 0 -- -- 42
2021-02-20 15:00:00 17.2 13 Sur 27 Sur 0 -- -- 46
2021-02-20 14:00:00 17.1 11 Sur 25 Sur 0 -- -- 49
2021-02-20 13:00:00 16.7 13 Sur 28 Sur 0 -- -- 49
2021-02-20 12:00:00 16 9 Sur 20 Sudoeste 0 -- -- 48
2021-02-20 11:00:00 12.5 6 Sudoeste 15 Sur 0 -- -- 56
2021-02-20 10:00:00 10.7 6 Sudoeste 13 Sudeste 0 -- -- 57
2021-02-20 09:00:00 10.1 6 Sudoeste 21 Sur 0 -- -- 58
2021-02-20 08:00:00 9.8 9 Sur 26 Sudoeste 0 -- -- 56
2021-02-20 07:00:00 10.6 7 Sudoeste 25 Sur 0 -- -- 54
2021-02-20 06:00:00 10.8 5 Sur 20 Sur 0 -- -- 48
2021-02-20 05:00:00 11.1 3 Sudoeste 22 Sur 0 -- -- 43
2021-02-20 04:00:00 10.6 3 Sur 26 Sur 0 -- -- 50
2021-02-20 03:00:00 11.1 11 Sur 20 Sur 0 -- -- 51
2021-02-20 02:00:00 11.2 2 Sudoeste 17 Sur 0 -- -- 50
2021-02-20 01:00:00 11 0 Calma 14 Noroeste 0 -- -- 50
2021-02-20 00:00:00 11.8 5 Oeste 17 Sudoeste 0 -- -- 47
2021-02-19 23:00:00 11.7 2 Oeste 14 Sudoeste 0 -- -- 49
2021-02-19 22:00:00 12.1 2 Sudoeste 22 Sur 0 -- -- 46
2021-02-19 21:00:00 12.9 11 Sur 23 Sur 0 -- -- 42
2021-02-19 20:00:00 13.1 5 Sur 15 Sur 0 -- -- 42
2021-02-19 19:00:00 14.8 5 Sur 18 Sur 0 -- -- 47
2021-02-19 18:00:00 17 9 Sur 24 Sur 0 -- -- 36
2021-02-19 17:00:00 18.3 11 Sur 24 Sur 0 -- -- 34
2021-02-19 16:00:00 18.5 14 Sur 32 Sur 0 -- -- 30
2021-02-19 15:00:00 18.8 16 Sur 30 Sur 0 -- -- 31
2021-02-19 14:00:00 18.6 16 Sur 30 Sudoeste 0 -- -- 26
2021-02-19 13:00:00 18.4 14 Sur 28 Sur 0 -- -- 29
2021-02-19 12:00:00 17.2 12 Sur 24 Sudoeste 0 -- -- 36
2021-02-19 11:00:00 16 4 Sudoeste 13 Sur 0 -- -- 42
2021-02-19 10:00:00 13.9 4 Sudoeste 14 Sur 0 -- -- 41
2021-02-19 09:00:00 10.2 0 Calma 5 Oeste 0 -- -- 53
2021-02-19 08:00:00 9.1 0 Calma 7 Este 0 -- -- 50
2021-02-19 07:00:00 9.1 0 Calma 7 Este 0 -- -- 53
2021-02-19 06:00:00 9.7 5 Sudeste 7 Sudeste 0 -- -- 56
2021-02-19 05:00:00 9.4 4 Este 7 Este 0 -- -- 59
2021-02-19 04:00:00 8.6 2 Sudeste 6 Este 0 -- -- 60
2021-02-19 03:00:00 8.7 4 Este 6 Este 0 -- -- 60
2021-02-19 02:00:00 8.5 3 Sudeste 4 Este 0 -- -- 70
2021-02-19 01:00:00 9 2 Este 6 Este 0 -- -- 72
2021-02-19 00:00:00 9.3 4 Este 6 Este 0 -- -- 76
2021-02-18 23:00:00 9.8 5 Sudeste 6 Este 0 -- -- 79
2021-02-18 22:00:00 10.8 4 Sudeste 5 Sudeste 0 -- -- 83
2021-02-18 21:00:00 11.6 4 Este 6 Este 0 -- -- 84
2021-02-18 20:00:00 12.8 0 Calma 4 Noroeste 0 -- -- 78
2021-02-18 19:00:00 14.8 3 Sudoeste 12 Noroeste 0 -- -- 75
2021-02-18 18:00:00 17.8 4 Noroeste 10 Norte 0 -- -- 55
2021-02-18 17:00:00 18.2 3 Norte 13 Oeste 0 -- -- 44
2021-02-18 16:00:00 18.6 7 Noroeste 15 Noroeste 0 -- -- 48
2021-02-18 15:00:00 18.4 8 Noroeste 18 Noroeste 0 -- -- 48
2021-02-18 14:00:00 17.5 10 Noroeste 20 Noroeste 0 -- -- 60
2021-02-18 13:00:00 17.2 6 Noroeste 13 Noroeste 0 -- -- 53
2021-02-18 12:00:00 15.6 5 Oeste 10 Oeste 0 -- -- 58
2021-02-18 11:00:00 14.5 4 Noroeste 7 Noroeste 0 -- -- 53
2021-02-18 10:00:00 12.3 3 Sudeste 6 Sudeste 0 -- -- 52
2021-02-18 09:00:00 8.3 3 Este 6 Este 0 -- -- 65
2021-02-18 08:00:00 7.1 0 Calma 6 Este 0 -- -- 71
2021-02-18 07:00:00 7.3 5 Este 8 Este 0 -- -- 67
2021-02-18 06:00:00 7.8 6 Este 7 Este 0 -- -- 58
2021-02-18 05:00:00 8.1 4 Sudeste 10 Este 0 -- -- 58
2021-02-18 04:00:00 8.3 2 Nordeste 6 Este 0 -- -- 55
2021-02-18 03:00:00 8.9 3 Este 5 Este 0 -- -- 62
2021-02-18 02:00:00 9.1 5 Este 9 Este 0 -- -- 62
2021-02-18 01:00:00 9.9 2 Este 6 Este 0 -- -- 74
2021-02-18 00:00:00 10.1 5 Este 8 Este 0 -- -- 75
2021-02-17 23:00:00 10.9 5 Este 6 Este 0 -- -- 77
2021-02-17 22:00:00 11.9 4 Este 6 Este 0 -- -- 79
2021-02-17 21:00:00 12.9 3 Este 6 Este 0 -- -- 76
2021-02-17 20:00:00 14.5 0 Calma 9 Oeste 0 -- -- 74
2021-02-17 19:00:00 16.6 5 Oeste 15 Norte 0 -- -- 63
2021-02-17 18:00:00 19.1 10 Noroeste 19 Noroeste 0 -- -- 55
2021-02-17 17:00:00 21.9 4 Noroeste 17 Oeste 0 -- -- 31
2021-02-17 16:00:00 22.2 10 Noroeste 17 Noroeste 0 -- -- 35
2021-02-17 15:00:00 22 3 Norte 10 Noroeste 0 -- -- 26
2021-02-17 14:00:00 21.4 4 Noroeste 8 Noroeste 0 -- -- 28
2021-02-17 13:00:00 19.7 4 Oeste 7 Noroeste 0 -- -- 43
2021-02-17 12:00:00 18.9 2 Noroeste 5 Noroeste 0 -- -- 43
2021-02-17 11:00:00 17.6 0 Calma 4 Este 0 -- -- 39
2021-02-17 10:00:00 13.8 0 Calma 8 Este 0 -- -- 41
2021-02-17 09:00:00 10.6 5 Este 8 Este 0 -- -- 44
2021-02-17 08:00:00 9.2 5 Sudeste 8 Este 0 -- -- 46
2021-02-17 07:00:00 9.4 4 Este 8 Este 0 -- -- 47
2021-02-17 06:00:00 9.5 5 Este 7 Este 0 -- -- 47
2021-02-17 05:00:00 9.8 6 Este 7 Este 0 -- -- 47
2021-02-17 04:00:00 9.7 4 Este 6 Este 0 -- -- 57
2021-02-17 03:00:00 9 5 Este 6 Este 0 -- -- 62
2021-02-17 02:00:00 9.1 5 Sudeste 6 Este 0 -- -- 68
2021-02-17 01:00:00 9.4 4 Este 5 Este 0 -- -- 71
2021-02-17 00:00:00 9.9 0 Calma 7 Este 0 -- -- 78
2021-02-16 23:00:00 10.5 4 Este 6 Este 0 -- -- 77
2021-02-16 22:00:00 11.2 4 Este 5 Este 0 -- -- 75
2021-02-16 21:00:00 12.4 3 Este 4 Este 0 -- -- 72
2021-02-16 20:00:00 13.8 0 Calma 4 Noroeste 0 -- -- 69
2021-02-16 19:00:00 16.5 2 Oeste 6 Oeste 0 -- -- 58
2021-02-16 18:00:00 19 3 Noroeste 13 Noroeste 0 -- -- 50
2021-02-16 17:00:00 19.9 8 Noroeste 13 Noroeste 0 -- -- 41
2021-02-16 16:00:00 19.9 6 Noroeste 13 Noroeste 0 -- -- 41
2021-02-16 15:00:00 18.9 5 Noroeste 12 Noroeste 0 -- -- 43
2021-02-16 14:00:00 18 5 Noroeste 11 Noroeste 0 -- -- 53
2021-02-16 13:00:00 15.6 5 Noroeste 10 Noroeste 0 -- -- 61
2021-02-16 12:00:00 13.6 4 Sudoeste 6 Oeste 0 -- -- 62
2021-02-16 11:00:00 12.5 2 Sudoeste 7 Sudeste 0 -- -- 62
2021-02-16 10:00:00 10.3 4 Norte 8 Nordeste 0 -- -- 65
2021-02-16 09:00:00 7.7 3 Nordeste 9 Nordeste 0 -- -- 70
2021-02-16 08:00:00 7.2 4 Nordeste 8 Nordeste 0 -- -- 68
2021-02-16 07:00:00 7.1 2 Norte 5 Nordeste 0 -- -- 65
2021-02-16 06:00:00 7.4 0 Calma 5 Noroeste 0 -- -- 63
2021-02-16 05:00:00 7.7 0 Calma 5 Noroeste 0 -- -- 62
2021-02-16 04:00:00 8.1 2 Oeste 6 Norte 0 -- -- 60
2021-02-16 03:00:00 8.6 2 Oeste 10 Sur 0 -- -- 57
2021-02-16 02:00:00 9.8 4 Sudoeste 24 Sudeste 0 -- -- 50
2021-02-16 01:00:00 10 12 Sudeste 30 Sudeste 0 -- -- 51
2021-02-16 00:00:00 10 10 Sudeste 33 Sur 0 -- -- 51
2021-02-15 23:00:00 10 9 Sur 30 Sur 0 -- -- 52
2021-02-15 22:00:00 10.5 10 Sur 26 Sur 0 -- -- 49
2021-02-15 21:00:00 10.5 13 Sudeste 36 Sudeste 0 -- -- 51
2021-02-15 20:00:00 10.6 15 Sudeste 33 Sudeste 0 -- -- 56
2021-02-15 19:00:00 11.5 17 Sudeste 35 Sur 0 -- -- 53
2021-02-15 18:00:00 13.2 17 Sudeste 37 Sudeste 0 -- -- 53
2021-02-15 17:00:00 14.5 16 Sudeste 40 Sudeste 0 -- -- 54
2021-02-15 16:00:00 15 18 Sur 40 Sur 0 -- -- 53
2021-02-15 15:00:00 15.1 19 Sur 37 Sur 0 -- -- 54
2021-02-15 14:00:00 14.1 19 Sur 38 Sudeste 0 -- -- 56
2021-02-15 13:00:00 13.2 22 Sudeste 37 Sudeste 0 -- -- 60
2021-02-15 12:00:00 12.6 19 Sudeste 41 Sur 0 -- -- 58
2021-02-15 11:00:00 11.6 18 Sudeste 43 Sudeste 0 -- -- 62
2021-02-15 10:00:00 10.4 23 Sur 45 Sur 0 -- -- 64
2021-02-15 09:00:00 9.2 26 Sur 44 Sudeste 0 -- -- 69
2021-02-15 08:00:00 8.8 24 Sudeste 40 Este 0 -- -- 71
2021-02-15 07:00:00 8.8 22 Sur 42 Sur 0 -- -- 71
2021-02-15 06:00:00 8.8 21 Sudeste 49 Sur 0 -- -- 71
2021-02-15 05:00:00 8.7 22 Sur 51 Sudeste 0 -- -- 69
2021-02-15 04:00:00 9 21 Sudeste 44 Sudeste 0 -- -- 64
2021-02-15 03:00:00 9.4 22 Sur 43 Sudeste 0 -- -- 59
2021-02-15 02:00:00 9.7 23 Sur 46 Sur 0 -- -- 57
2021-02-15 01:00:00 9.7 23 Sur 45 Sudeste 0 -- -- 58
2021-02-15 00:00:00 10.2 22 Sur 41 Sudeste 0 -- -- 57
2021-02-14 23:00:00 10.3 17 Sur 36 Sudeste 0 -- -- 57
2021-02-14 22:00:00 10.9 20 Sur 40 Sur 0 -- -- 55
2021-02-14 21:00:00 11.4 18 Sur 37 Sur 0 -- -- 52
2021-02-14 20:00:00 11.5 16 Sur 33 Sur 0 -- -- 52
2021-02-14 19:00:00 12 15 Sur 30 Sur 0 -- -- 51
2021-02-14 18:00:00 14.2 15 Sur 29 Sur 0 -- -- 46
2021-02-14 17:00:00 16.2 13 Sur 30 Sudeste 0 -- -- 43
2021-02-14 16:00:00 17 12 Sur 27 Sur 0 -- -- 41
2021-02-14 15:00:00 17.2 12 Sur 29 Sudeste 0 -- -- 42
2021-02-14 14:00:00 16.8 14 Sur 35 Este 0 -- -- 40
2021-02-14 13:00:00 16.6 15 Sur 33 Sudeste 0 -- -- 40
2021-02-14 12:00:00 16.7 12 Sur 24 Sudeste 0 -- -- 38
2021-02-14 11:00:00 16 8 Sur 15 Sur 0 -- -- 40
2021-02-14 10:00:00 13.2 4 Sur 14 Este 0 -- -- 47
2021-02-14 09:00:00 9.3 5 Sudeste 9 Sudeste 0 -- -- 42
2021-02-14 08:00:00 7.6 0 Calma 9 Sudeste 0 -- -- 44
2021-02-14 07:00:00 7.9 5 Sudeste 8 Sudeste 0 -- -- 41
2021-02-14 06:00:00 8.2 4 Este 7 Sudeste 0 -- -- 35
2021-02-14 05:00:00 8.2 4 Este 11 Este 0 -- -- 39
2021-02-14 04:00:00 7.9 6 Este 8 Este 0 -- -- 38
2021-02-14 03:00:00 8.1 0 Calma 7 Sudeste 0 -- -- 49
2021-02-14 02:00:00 8.9 3 Nordeste 6 Este 0 -- -- 49
2021-02-14 01:00:00 8.4 4 Sudeste 9 Norte 0 -- -- 43
2021-02-14 00:00:00 9.7 5 Norte 9 Nordeste 0 -- -- 48
2021-02-13 23:00:00 9.8 4 Nordeste 12 Nordeste 0 -- -- 41
2021-02-13 22:00:00 9.5 2 Nordeste 7 Este 0 -- -- 45
2021-02-13 21:00:00 10.2 5 Este 9 Este 0 -- -- 53
2021-02-13 20:00:00 12.2 0 Calma 11 Norte 0 -- -- 48
2021-02-13 19:00:00 14.2 7 Norte 12 Norte 0 -- -- 44
2021-02-13 18:00:00 16.2 4 Norte 12 Norte 0 -- -- 45
2021-02-13 17:00:00 17 8 Norte 18 Norte 0 -- -- 38
2021-02-13 16:00:00 17.6 4 Norte 14 Norte 0 -- -- 39
2021-02-13 15:00:00 18.3 6 Norte 16 Norte 0 -- -- 28
2021-02-13 14:00:00 17.4 6 Norte 15 Nordeste 0 -- -- 27
2021-02-13 13:00:00 16.6 6 Norte 15 Norte 0 -- -- 33
2021-02-13 08:00:00 -- -- -- -- -- -- -- -- --
2021-02-13 07:00:00 -- -- -- -- -- -- -- -- --
2021-02-13 06:00:00 5.4 0 Calma 5 Sudeste 0 -- -- 92
2021-02-13 05:00:00 5.9 4 Este 6 Este 0 -- -- 89
2021-02-13 04:00:00 6.9 0 Calma 3 Norte 0 -- -- 88
2021-02-13 03:00:00 7 0 Calma 6 Nordeste 0 -- -- 86
2021-02-13 02:00:00 7.8 4 Nordeste 10 Nordeste 0 -- -- 85
2021-02-13 01:00:00 8.1 5 Nordeste 8 Nordeste 0 -- -- 85
2021-02-13 00:00:00 8.2 4 Nordeste 8 Nordeste 0 -- -- 84
2021-02-12 23:00:00 8.9 3 Nordeste 8 Norte 0 -- -- 82
2021-02-12 22:00:00 9 4 Este 7 Nordeste 0 -- -- 82
2021-02-12 21:00:00 9.6 2 Nordeste 9 Nordeste 0 -- -- 79
2021-02-12 20:00:00 10.5 4 Norte 13 Noroeste 0 -- -- 75
2021-02-12 19:00:00 11.7 5 Noroeste 16 Noroeste 0 -- -- 72
2021-02-12 18:00:00 13.7 7 Noroeste 18 Noroeste 0 -- -- 65
2021-02-12 17:00:00 14.3 8 Norte 23 Noroeste 0 -- -- 65
2021-02-12 16:00:00 15 8 Noroeste 23 Noroeste 0 -- -- 56
2021-02-12 15:00:00 14.7 8 Noroeste 27 Oeste 0 -- -- 60
2021-02-12 14:00:00 14.1 14 Noroeste 37 Noroeste 0 -- -- 64
2021-02-12 13:00:00 13.5 15 Noroeste 28 Oeste 0 -- -- 66
2021-02-12 12:00:00 12.7 13 Oeste 32 Noroeste 0 -- -- 77
2021-02-12 11:00:00 11 8 Noroeste 26 Noroeste 0 -- -- 97
2021-02-12 10:00:00 10.8 5 Noroeste 15 Noroeste 0.2 -- -- 96
2021-02-12 09:00:00 10.3 0 Calma 15 Oeste 0 -- -- 96
2021-02-12 08:00:00 10.1 0 Calma 14 Oeste 0 -- -- 96
2021-02-12 07:00:00 10.1 7 Oeste 17 Oeste 0 -- -- 96
2021-02-12 06:00:00 9.9 0 Calma 11 Noroeste 0 -- -- 96
2021-02-12 05:00:00 10.1 0 Calma 13 Noroeste 0 -- -- 95
2021-02-12 04:00:00 10 5 Noroeste 13 Noroeste 0 -- -- 95
2021-02-12 03:00:00 10 0 Calma 6 Norte 0 -- -- 95
2021-02-12 02:00:00 9.8 0 Calma 8 Noroeste 0 -- -- 96
2021-02-12 01:00:00 9.8 0 Calma 7 Noroeste 0 -- -- 96
2021-02-12 00:00:00 10.1 2 Oeste 6 Oeste 0 -- -- 95
2021-02-11 23:00:00 10.2 0 Calma 4 Oeste 0 -- -- 94
2021-02-11 22:00:00 10.8 0 Calma 13 Oeste 0 -- -- 94
2021-02-11 21:00:00 11.7 5 Oeste 14 Noroeste 0 -- -- 91
2021-02-11 20:00:00 12.2 3 Oeste 10 Oeste 0 -- -- 90
2021-02-11 19:00:00 12.9 4 Noroeste 13 Noroeste 0 -- -- 89
2021-02-11 18:00:00 13.6 5 Noroeste 13 Noroeste 0 -- -- 88
2021-02-11 17:00:00 14.7 7 Noroeste 17 Oeste 0 -- -- 84
2021-02-11 16:00:00 14.9 8 Noroeste 17 Noroeste 0 -- -- 83
2021-02-11 15:00:00 15.3 3 Noroeste 10 Norte 0 -- -- 82
2021-02-11 14:00:00 15.3 5 Noroeste 13 Oeste 0 -- -- 80
2021-02-11 13:00:00 15 5 Noroeste 11 Noroeste 0 -- -- 84
2021-02-11 12:00:00 13.6 2 Este 9 Noroeste 0 -- -- 88
2021-02-11 11:00:00 12.5 3 Norte 8 Nordeste 0 -- -- 90
2021-02-11 10:00:00 11.7 0 Calma 5 Este 0 -- -- 95
2021-02-11 09:00:00 10.6 0 Calma 8 Este 0 -- -- 97
2021-02-11 08:00:00 10.6 3 Nordeste 6 Nordeste 0 -- -- 97
2021-02-11 07:00:00 10.3 0 Calma 2 Este 0 -- -- 97
2021-02-11 06:00:00 10.2 0 Calma 4 Este 0 -- -- 97
2021-02-11 05:00:00 10.5 0 Calma 4 Noroeste 0 -- -- 96
2021-02-11 04:00:00 10.5 0 Calma 4 Sudeste 0 -- -- 96
2021-02-11 03:00:00 10.5 0 Calma 3 Noroeste 0 -- -- 95
2021-02-11 02:00:00 10.6 0 Calma 4 Norte 0 -- -- 95
2021-02-11 01:00:00 10.9 2 Norte 5 Norte 0 -- -- 94
2021-02-11 00:00:00 11 0 Calma 4 Noroeste 0 -- -- 93
2021-02-10 23:00:00 10.8 0 Calma 6 Noroeste 0 -- -- 94
2021-02-10 22:00:00 10.7 0 Calma 14 Oeste 0 -- -- 94
2021-02-10 21:00:00 10.9 4 Sudoeste 15 Noroeste 0 -- -- 94
2021-02-10 20:00:00 11.3 5 Noroeste 17 Noroeste 0 -- -- 94
2021-02-10 19:00:00 11.5 3 Oeste 23 Noroeste 0.2 -- -- 94
2021-02-10 18:00:00 11.8 4 Noroeste 20 Noroeste 0 -- -- 95
2021-02-10 17:00:00 11.9 4 Noroeste 20 Noroeste 0.2 -- -- 95
2021-02-10 16:00:00 12 8 Noroeste 23 Noroeste 0.4 -- -- 94
2021-02-10 15:00:00 12.2 9 Noroeste 25 Noroeste 0.2 -- -- 95
2021-02-10 14:00:00 12 7 Noroeste 26 Noroeste 0.2 -- -- 96
2021-02-10 13:00:00 11.8 9 Noroeste 33 Noroeste 0 -- -- 96
2021-02-10 12:00:00 11.4 11 Noroeste 30 Oeste 0.2 -- -- 97
2021-02-10 11:00:00 10.4 6 Noroeste 31 Norte 0.2 -- -- 96
2021-02-10 10:00:00 10.2 13 Noroeste 40 Oeste 0.2 -- -- 94
2021-02-10 09:00:00 10.4 18 Noroeste 56 Oeste 0.6 -- -- 93
2021-02-10 08:00:00 10.4 12 Noroeste 38 Noroeste 0.4 -- -- 95
2021-02-10 07:00:00 9.9 8 Noroeste 41 Oeste 0.2 -- -- 95
2021-02-10 06:00:00 9.4 9 Norte 34 Oeste 0.2 -- -- 97
2021-02-10 05:00:00 8.9 9 Oeste 18 Noroeste 1.2 -- -- 97
2021-02-10 04:00:00 8.7 4 Norte 28 Sudoeste 0.6 -- -- 95
2021-02-10 03:00:00 8.8 4 Norte 43 Oeste 0.4 -- -- 95
2021-02-10 02:00:00 9.3 15 Oeste 27 Oeste 2.6 -- -- 96
2021-02-10 01:00:00 9.5 5 Sudoeste 37 Oeste 1 -- -- 94
2021-02-10 00:00:00 9.8 19 Noroeste 43 Oeste 1.2 -- -- 92
2021-02-09 23:00:00 10.1 13 Noroeste 37 Sudoeste 0.8 -- -- 95
2021-02-09 22:00:00 9.5 7 Sur 24 Sudoeste 1.4 -- -- 95
2021-02-09 21:00:00 9.7 11 Sur 30 Sudoeste 0.8 -- -- 85
2021-02-09 20:00:00 9.9 6 Sur 28 Sudoeste 0.4 -- -- 94
2021-02-09 19:00:00 10.1 5 Sudoeste 25 Sudoeste 1 -- -- 95
2021-02-09 18:00:00 9.9 14 Sur 33 Sudoeste 0.8 -- -- 89
2021-02-09 17:00:00 10.7 7 Sur 44 Sudoeste 1 -- -- 92
2021-02-09 16:00:00 11.4 11 Sur 46 Sur 0 -- -- 80
2021-02-09 15:00:00 11.8 15 Sur 48 Sudoeste 0.2 -- -- 79
2021-02-09 14:00:00 11.5 11 Sur 51 Sudoeste 0 -- -- 84
2021-02-09 13:00:00 11.2 19 Sur 52 Sudoeste 0 -- -- 81
2021-02-09 12:00:00 10.8 10 Sudeste 42 Sudoeste 0 -- -- 89
2021-02-09 11:00:00 10 13 Sur 48 Sudoeste 0 -- -- 85
2021-02-09 10:00:00 9.6 18 Sur 51 Sudoeste 0 -- -- 80
2021-02-09 09:00:00 8.7 10 Sur 36 Sur 0 -- -- 86
2021-02-09 08:00:00 8.4 8 Sur 36 Sudoeste 0 -- -- 92
2021-02-09 07:00:00 8.3 5 Sudoeste 24 Oeste 0 -- -- 87
2021-02-09 06:00:00 8.6 8 Norte 27 Sudoeste 0 -- -- 79
2021-02-09 05:00:00 8 8 Sudeste 27 Oeste 0 -- -- 81
2021-02-09 04:00:00 7.9 8 Sur 22 Sudoeste 0 -- -- 86
2021-02-09 03:00:00 8.5 6 Sur 22 Sudoeste 0 -- -- 81
2021-02-09 02:00:00 8.5 4 Sur 20 Sudoeste 0 -- -- 82
2021-02-09 01:00:00 8.6 4 Oeste 18 Oeste 0 -- -- 84
2021-02-09 00:00:00 8.4 8 Noroeste 19 Oeste 0.2 -- -- 87
2021-02-08 23:00:00 8.3 5 Sur 21 Sur 0 -- -- 90
2021-02-08 22:00:00 8.4 4 Sudoeste 20 Oeste 0.2 -- -- 90
2021-02-08 21:00:00 8.7 9 Noroeste 30 Noroeste 0 -- -- 89
2021-02-08 20:00:00 9.4 10 Noroeste 34 Sudoeste 0 -- -- 78
2021-02-08 19:00:00 9.6 11 Noroeste 41 Noroeste 0 -- -- 75
2021-02-08 18:00:00 10.5 10 Noroeste 34 Noroeste 0 -- -- 69
2021-02-08 17:00:00 11.5 15 Noroeste 44 Oeste 0 -- -- 64
2021-02-08 16:00:00 11.3 16 Oeste 43 Noroeste 0 -- -- 62
2021-02-08 15:00:00 11.1 18 Oeste 44 Oeste 0 -- -- 60
2021-02-08 14:00:00 12 18 Noroeste 39 Sudoeste 0 -- -- 65
2021-02-08 13:00:00 11 15 Noroeste 42 Oeste 0 -- -- 67
2021-02-08 12:00:00 9.6 10 Noroeste 33 Oeste 0 -- -- 81
2021-02-08 11:00:00 8.4 15 Oeste 33 Oeste 0 -- -- 84
2021-02-08 10:00:00 7.3 7 Oeste 27 Noroeste 0.2 -- -- 94
2021-02-08 09:00:00 7.2 13 Oeste 47 Noroeste 0.4 -- -- 95
2021-02-08 08:00:00 9.5 18 Noroeste 43 Sudoeste 3.6 -- -- 94
2021-02-08 07:00:00 9.6 13 Sur 50 Sudoeste 3 -- -- 95
2021-02-08 06:00:00 9.4 14 Sur 44 Sur 1.2 -- -- 94
2021-02-08 05:00:00 9 19 Sur 43 Sudoeste 0.6 -- -- 93
2021-02-08 04:00:00 8.8 17 Sur 44 Sudoeste 0 -- -- 91
2021-02-08 03:00:00 8.5 15 Sur 44 Sudoeste 0.2 -- -- 92
2021-02-08 02:00:00 8.1 9 Norte 35 Oeste 0.2 -- -- 94
2021-02-08 01:00:00 7.5 5 Sur 21 Sur 0 -- -- 95
2021-02-08 00:00:00 7.3 7 Sudoeste 26 Sudoeste 0 -- -- 92
2021-02-07 23:00:00 7.5 5 Sur 23 Sudoeste 0 -- -- 88
2021-02-07 22:00:00 7.6 4 Sudeste 22 Sudoeste 0 -- -- 83
2021-02-07 21:00:00 7.3 9 Noroeste 27 Oeste 0 -- -- 82
2021-02-07 20:00:00 6.6 7 Noroeste 20 Noroeste 0 -- -- 79
2021-02-07 19:00:00 6.4 7 Oeste 22 Oeste 0 -- -- 76
2021-02-07 18:00:00 6.8 6 Norte 21 Oeste 0 -- -- 73
2021-02-07 17:00:00 7.1 9 Noroeste 29 Oeste 0 -- -- 72
2021-02-07 16:00:00 7.7 8 Norte 35 Sudoeste 0 -- -- 73
2021-02-07 15:00:00 8.4 8 Norte 25 Oeste 0 -- -- 77
2021-02-07 14:00:00 7.9 11 Noroeste 31 Noroeste 0 -- -- 78
2021-02-07 13:00:00 8 7 Noroeste 21 Noroeste 0 -- -- 84
2021-02-07 12:00:00 7.2 7 Noroeste 23 Oeste 0 -- -- 97
2021-02-07 11:00:00 6.8 0 Calma 14 Noroeste 0 -- -- 98
2021-02-07 10:00:00 6.2 5 Oeste 19 Oeste 0 -- -- 97
2021-02-07 09:00:00 6.1 5 Oeste 18 Noroeste 0.2 -- -- 97
2021-02-07 08:00:00 6.1 5 Oeste 18 Oeste 0 -- -- 97
2021-02-07 07:00:00 5.9 5 Oeste 12 Oeste 0 -- -- 97
2021-02-07 06:00:00 5.7 0 Calma 7 Oeste 0 -- -- 96
2021-02-07 05:00:00 5.7 0 Calma 7 Oeste 0.2 -- -- 96
2021-02-07 04:00:00 5.7 5 Oeste 13 Noroeste 0 -- -- 95
2021-02-07 03:00:00 5.8 0 Calma 21 Sudoeste 0.2 -- -- 94
2021-02-07 02:00:00 5.8 4 Sudoeste 18 Sudoeste 0.2 -- -- 94
2021-02-07 01:00:00 6.1 4 Sur 20 Oeste 0 -- -- 93
2021-02-07 00:00:00 6.3 4 Sur 11 Sur 0.4 -- -- 93
2021-02-06 23:00:00 6.7 5 Oeste 11 Noroeste 0.8 -- -- 93
2021-02-06 22:00:00 6.8 2 Oeste 15 Oeste 0.2 -- -- 92
2021-02-06 21:00:00 7.3 5 Noroeste 15 Noroeste 0.2 -- -- 89
2021-02-06 20:00:00 7.7 3 Norte 15 Noroeste 0 -- -- 85
2021-02-06 19:00:00 7.8 4 Oeste 15 Sudoeste 0 -- -- 87
2021-02-06 18:00:00 8.7 5 Noroeste 23 Sudoeste 0 -- -- 80
2021-02-06 17:00:00 9.6 8 Norte 25 Sudoeste 0.2 -- -- 76
2021-02-06 16:00:00 9.4 8 Sur 26 Sudoeste 0 -- -- 82
2021-02-06 15:00:00 10.6 9 Sur 32 Sur 0 -- -- 80
2021-02-06 14:00:00 9.3 6 Sudeste 30 Oeste 0 -- -- 81
2021-02-06 13:00:00 9.8 9 Sur 25 Sur 0 -- -- 78
2021-02-06 12:00:00 9.7 6 Sur 22 Sudoeste 1.6 -- -- 86
2021-02-06 11:00:00 8 3 Sur 26 Sur 0.4 -- -- 86
2021-02-06 10:00:00 8 6 Sur 23 Sudoeste 0 -- -- 83
2021-02-06 09:00:00 7.3 6 Sur 20 Noroeste 0 -- -- 85
2021-02-06 08:00:00 6.8 4 Nordeste 18 Oeste 0 -- -- 87
2021-02-06 07:00:00 6.9 5 Este 20 Sudoeste 0 -- -- 87
2021-02-06 06:00:00 6.9 6 Este 24 Sudeste 0 -- -- 90
2021-02-06 05:00:00 7.2 6 Sudeste 19 Sur 0 -- -- 92
2021-02-06 04:00:00 7.7 5 Este 29 Sur 0.2 -- -- 92
2021-02-06 03:00:00 7.7 13 Sur 35 Sur 0.6 -- -- 92
2021-02-06 02:00:00 7.7 18 Sur 33 Sudoeste 0.4 -- -- 92
2021-02-06 01:00:00 7.8 14 Sur 40 Sur 0.8 -- -- 92
2021-02-06 00:00:00 7.8 14 Sur 35 Sur 0.8 -- -- 90
2021-02-05 23:00:00 8.1 11 Sur 28 Sudoeste 0.4 -- -- 88
2021-02-05 22:00:00 8.5 12 Sur 37 Sudeste 0 -- -- 85
2021-02-05 21:00:00 8.8 12 Sur 35 Sudoeste 0 -- -- 82
2021-02-05 20:00:00 9 8 Sur 25 Sudoeste 0 -- -- 81
2021-02-05 19:00:00 9.3 8 Sur 36 Sudoeste 0 -- -- 80
2021-02-05 18:00:00 10.2 15 Sur 31 Sur 0 -- -- 73
2021-02-05 17:00:00 10.7 12 Sur 39 Sudoeste 0 -- -- 70
2021-02-05 16:00:00 11.8 6 Sur 29 Sudeste 0 -- -- 66
2021-02-05 15:00:00 11.9 5 Sur 28 Oeste 0 -- -- 69
2021-02-05 14:00:00 14.5 4 Sudoeste 9 Este 0 -- -- 68
2021-02-05 13:00:00 13.8 2 Sur 8 Oeste 0 -- -- 70
2021-02-05 12:00:00 11.4 3 Oeste 6 Oeste 0 -- -- 83
2021-02-05 11:00:00 10.9 3 Oeste 6 Sudoeste 0 -- -- 84
2021-02-05 10:00:00 9.1 2 Noroeste 7 Noroeste 0 -- -- 93
2021-02-05 09:00:00 7.9 3 Noroeste 13 Noroeste 0 -- -- 93
2021-02-05 08:00:00 8.8 5 Noroeste 14 Sudoeste 0 -- -- 82
2021-02-05 07:00:00 9.2 0 Calma 12 Sur 0 -- -- 74
2021-02-05 06:00:00 10.6 5 Sudoeste 17 Sudeste 0 -- -- 68
2021-02-05 05:00:00 11.3 4 Sur 20 Este 0 -- -- 67
2021-02-05 04:00:00 12.1 6 Sudeste 18 Sur 0 -- -- 62
2021-02-05 03:00:00 12.6 8 Sur 23 Sudeste 0 -- -- 56
2021-02-05 02:00:00 12.9 3 Sudeste 19 Sur 0 -- -- 48
2021-02-05 01:00:00 12.5 3 Sudoeste 9 Oeste 0 -- -- 63
2021-02-05 00:00:00 12.3 0 Calma 12 Sudoeste 0 -- -- 69
2021-02-04 23:00:00 12.4 2 Oeste 7 Oeste 0 -- -- 77
2021-02-04 22:00:00 12.1 0 Calma 6 Sudoeste 0 -- -- 73
2021-02-04 21:00:00 12.8 0 Calma 15 Este 0 -- -- 73
2021-02-04 20:00:00 13.1 0 Calma 4 Este 0 -- -- 82
2021-02-04 19:00:00 13.8 0 Calma 8 Nordeste 0 -- -- 76
2021-02-04 18:00:00 15.2 3 Noroeste 14 Noroeste 0 -- -- 73
2021-02-04 17:00:00 15.2 6 Noroeste 18 Oeste 0 -- -- 66
2021-02-04 16:00:00 17.1 3 Oeste 18 Sur 0 -- -- 60
2021-02-04 15:00:00 17.8 10 Sur 30 Sur 0 -- -- 49
2021-02-04 14:00:00 16.8 12 Sur 31 Sur 0 -- -- 53
2021-02-04 13:00:00 16.4 15 Sur 37 Sudoeste 0 -- -- 53
2021-02-04 12:00:00 15.1 16 Sur 33 Sur 0 -- -- 56
2021-02-04 11:00:00 12 6 Norte 12 Norte 0 -- -- 76
2021-02-04 10:00:00 10.5 6 Norte 13 Noroeste 0 -- -- 79
2021-02-04 09:00:00 9.9 6 Noroeste 23 Sudoeste 0 -- -- 81
2021-02-04 08:00:00 9.9 9 Oeste 27 Oeste 0 -- -- 80
2021-02-04 07:00:00 8.7 3 Sudoeste 14 Oeste 0 -- -- 88
2021-02-04 06:00:00 7.2 0 Calma 2 Este 0 -- -- 95
2021-02-04 05:00:00 7.3 0 Calma 2 Sudeste 0 -- -- 95
2021-02-04 04:00:00 8 0 Calma 3 Noroeste 0 -- -- 95
2021-02-04 03:00:00 7.6 0 Calma 2 Sudeste 0 -- -- 94
2021-02-04 02:00:00 8.1 0 Calma 4 Este 0 -- -- 91
2021-02-04 01:00:00 9.1 0 Calma 3 Este 0 -- -- 90
2021-02-04 00:00:00 9.3 0 Calma 0 Calma 0 -- -- 91